Terminal Aerodrome Forecast
Issued by NWS Louisville, KY

Home | Current Version | Previous Version | Text Only | Print | Product List | Glossary On
Versions: 1 2 3 4 5 6 7 8 9 10 11 12 13 14 15 16
000
FTUS43 KLMK 191700
TAFSDF
TAF
KSDF 191721Z 1918/2024 VRB04KT P6SM SCT035
     FM200600 18004KT P6SM SCT100 BKN250
     FM201600 22008KT P6SM VCSH BKN050=

USA.gov is the U.S. government's official web portal to all federal, state and local government web resources and services.